Time;durP1;ratioP1;P1;durP2;ratioP2;P2;SDS_P1;SDS_P2;PMS_P1;PMS_P2;Temp;Humidity;BMP_temperature;BMP_pressure;BME280_temperature;BME280_humidity;BME280_pressure;Samples;Min_cycle;Max_cycle;Signal;HPM_P1;HPM_P2
2024/04/11 00:00:43;;;;;;;7.12;5.10;;;;;;;11.93;59.26;101734.08;1772157;80;25627;-67
2024/04/11 00:03:12;;;;;;;10.05;4.45;;;;;;;11.87;59.28;101736.55;1776511;80;26002;-66
2024/04/11 00:05:40;;;;;;;7.55;4.47;;;;;;;11.80;59.28;101745.55;1776305;80;25796;-67
2024/04/11 00:08:07;;;;;;;9.80;4.12;;;;;;;11.74;59.37;101750.73;1776350;80;25437;-67
2024/04/11 00:10:34;;;;;;;8.58;4.45;;;;;;;11.67;59.44;101737.48;1781252;80;25429;-67
2024/04/11 00:13:00;;;;;;;6.75;3.60;;;;;;;11.63;59.36;101746.45;1762083;81;25476;-67
2024/04/11 00:15:26;;;;;;;9.50;3.80;;;;;;;11.58;59.58;101739.19;1764140;80;28055;-67
2024/04/11 00:17:52;;;;;;;10.55;3.95;;;;;;;11.54;59.66;101748.42;1761845;81;25574;-68
2024/04/11 00:20:19;;;;;;;5.25;3.25;;;;;;;11.52;59.70;101740.30;1793271;80;25579;-67
2024/04/11 00:22:48;;;;;;;5.30;2.80;;;;;;;11.49;59.75;101740.33;1761920;81;25201;-67
2024/04/11 00:25:15;;;;;;;6.30;3.42;;;;;;;11.46;59.73;101740.05;1772345;80;25556;-67
2024/04/11 00:27:41;;;;;;;6.12;3.42;;;;;;;11.43;59.98;101744.14;1761933;81;27558;-67
2024/04/11 00:30:11;;;;;;;5.58;3.27;;;;;;;11.39;59.99;101745.77;1793181;80;25788;-67
2024/04/11 00:32:37;;;;;;;6.85;3.10;;;;;;;11.38;59.96;101746.88;1761906;81;25604;-66
2024/04/11 00:35:05;;;;;;;4.45;2.60;;;;;;;11.35;60.08;101751.48;1793171;80;27531;-66
2024/04/11 00:37:32;;;;;;;10.72;3.80;;;;;;;11.35;60.14;101755.00;1761951;81;25369;-66
2024/04/11 00:39:59;;;;;;;4.40;2.92;;;;;;;11.36;60.21;101751.77;1793378;80;27468;-67
2024/04/11 00:42:26;;;;;;;5.62;2.65;;;;;;;11.34;60.18;101753.39;1761820;81;25644;-67
2024/04/11 00:44:53;;;;;;;8.95;3.98;;;;;;;11.34;60.25;101756.10;1773285;80;25660;-67
2024/04/11 00:47:20;;;;;;;8.68;3.22;;;;;;;11.33;60.28;101755.83;1761868;81;25749;-67
2024/04/11 00:49:50;;;;;;;4.00;3.00;;;;;;;11.32;60.25;101750.69;1793222;80;25623;-67
2024/04/11 00:52:18;;;;;;;4.70;2.60;;;;;;;11.31;60.27;101750.44;1761902;81;27479;-67
2024/04/11 00:54:44;;;;;;;4.97;2.98;;;;;;;11.28;60.28;101745.02;1793151;80;25549;-67
2024/04/11 00:57:13;;;;;;;4.45;2.90;;;;;;;11.26;60.26;101746.39;1761887;81;25518;-68
2024/04/11 00:59:42;;;;;;;7.37;3.27;;;;;;;11.24;60.31;101749.38;1793214;80;25632;-67
2024/04/11 01:02:11;;;;;;;4.83;2.70;;;;;;;11.23;60.43;101747.75;1762046;81;25481;-67
2024/04/11 01:04:38;;;;;;;6.53;2.72;;;;;;;11.19;60.27;101754.81;1793392;80;27417;-67
2024/04/11 01:07:10;;;;;;;5.22;2.35;;;;;;;11.15;60.09;101756.44;1761866;81;25736;-67
2024/04/11 01:09:43;;;;;;;5.37;2.10;;;;;;;11.12;60.04;101757.02;1793290;80;25451;-67
2024/04/11 01:12:14;;;;;;;6.25;2.60;;;;;;;11.03;59.91;101754.88;1757181;80;25823;-67
2024/04/11 01:14:43;;;;;;;4.70;2.17;;;;;;;11.00;60.03;101760.04;1770374;80;25454;-67
2024/04/11 01:17:17;;;;;;;3.67;2.17;;;;;;;10.94;59.98;101760.58;1756218;81;27479;-67
2024/04/11 01:19:50;;;;;;;4.28;1.60;;;;;;;10.89;59.94;101764.65;1774908;80;25744;-67
2024/04/11 01:22:18;;;;;;;3.95;2.10;;;;;;;10.84;59.78;101764.67;1756277;81;25292;-67
2024/04/11 01:24:44;;;;;;;2.77;1.60;;;;;;;10.80;59.89;101768.47;1776260;80;25629;-67
2024/04/11 01:27:16;;;;;;;6.10;1.77;;;;;;;10.74;59.69;101770.91;1776324;80;25639;-67
2024/04/11 01:29:43;;;;;;;6.65;2.10;;;;;;;10.68;59.60;101768.51;1776274;80;27552;-67
2024/04/11 01:32:09;;;;;;;4.42;1.80;;;;;;;10.63;59.85;101772.02;1776165;79;25562;-67
2024/04/11 01:34:36;;;;;;;2.75;1.77;;;;;;;10.56;60.24;101768.80;1776235;80;25467;-67
2024/04/11 01:37:02;;;;;;;3.85;1.75;;;;;;;10.52;60.14;101777.17;1776238;80;26054;-67
2024/04/11 01:39:30;;;;;;;7.85;2.05;;;;;;;10.46;60.37;101775.02;1776326;79;25396;-67
2024/04/11 01:41:58;;;;;;;1.80;1.63;;;;;;;10.40;60.48;101786.39;1756412;81;28237;-67
2024/04/11 01:44:27;;;;;;;5.60;2.30;;;;;;;10.36;60.71;101788.55;1776192;80;25614;-67
2024/04/11 01:46:53;;;;;;;4.40;1.98;;;;;;;10.32;60.77;101788.28;1775909;80;25410;-67
2024/04/11 01:49:21;;;;;;;5.53;2.08;;;;;;;10.28;60.94;101784.45;1776249;79;25500;-67
2024/04/11 01:51:48;;;;;;;6.62;1.70;;;;;;;10.24;60.95;101786.88;1746401;80;25553;-67
2024/04/11 01:54:14;;;;;;;3.83;1.47;;;;;;;10.18;61.08;101787.14;1776363;80;27564;-68
2024/04/11 01:56:40;;;;;;;6.53;1.82;;;;;;;10.13;61.19;101789.33;1756124;81;25616;-68
2024/04/11 01:59:08;;;;;;;5.78;1.62;;;;;;;10.08;61.25;101795.53;1776409;80;25608;-67
2024/04/11 02:01:38;;;;;;;2.90;1.50;;;;;;;10.04;61.41;101790.38;1776743;80;25548;-68
2024/04/11 02:04:06;;;;;;;5.40;2.05;;;;;;;10.00;61.36;101789.30;1756422;81;25545;-67
2024/04/11 02:06:36;;;;;;;4.72;2.10;;;;;;;9.97;62.25;101783.08;1776395;80;27535;-67
2024/04/11 02:09:09;;;;;;;13.35;2.15;;;;;;;9.98;62.70;101780.66;1755304;81;25794;-67
2024/04/11 02:11:43;;;;;;;4.90;1.72;;;;;;;9.99;63.21;101789.02;1783649;80;25472;-67
2024/04/11 02:14:11;;;;;;;2.40;1.87;;;;;;;10.01;63.90;101792.80;1761996;81;25636;-67
2024/04/11 02:16:38;;;;;;;3.92;1.42;;;;;;;10.02;63.57;101795.80;1793554;80;25464;-67
2024/04/11 02:19:07;;;;;;;3.52;1.77;;;;;;;10.02;63.67;101795.25;1761996;81;28371;-67
2024/04/11 02:21:40;;;;;;;6.17;1.95;;;;;;;10.02;63.57;101799.84;1793227;80;25614;-67
2024/04/11 02:24:07;;;;;;;5.30;1.85;;;;;;;10.02;63.65;101795.80;1761723;81;25432;-67
2024/04/11 02:26:35;;;;;;;5.72;1.70;;;;;;;10.00;63.05;101792.55;1793250;80;25621;-66
2024/04/11 02:29:04;;;;;;;2.65;1.72;;;;;;;9.93;62.73;101797.38;1761998;81;25444;-67
2024/04/11 02:31:33;;;;;;;3.90;2.05;;;;;;;9.86;62.32;101797.67;1793403;80;27445;-66
2024/04/11 02:34:00;;;;;;;;;;;;;;;9.78;62.20;101801.69;1764489;81;25376;-67
2024/04/11 02:36:29;;;;;;;5.85;1.85;;;;;;;9.73;62.24;101797.62;1793326;80;25565;-67
2024/04/11 02:38:59;;;;;;;3.83;1.95;;;;;;;9.62;62.25;101803.55;1762054;81;26103;-66
2024/04/11 02:41:29;;;;;;;;;;;;;;;9.53;62.44;101811.36;1796014;80;25380;-67
2024/04/11 02:43:57;;;;;;;4.03;1.77;;;;;;;9.44;62.72;101816.98;1793351;80;27542;-67
2024/04/11 02:46:25;;;;;;;5.80;1.77;;;;;;;9.35;62.73;101809.12;1761892;81;25627;-66
2024/04/11 02:48:53;;;;;;;6.47;2.67;;;;;;;9.26;62.81;101814.73;1793222;80;25381;-67
2024/04/11 02:51:21;;;;;;;3.35;2.00;;;;;;;9.17;62.96;101811.72;1762007;81;25503;-67
2024/04/11 02:53:48;;;;;;;3.83;1.90;;;;;;;9.10;62.84;101807.09;1793362;78;25593;-67
2024/04/11 02:56:20;;;;;;;5.03;2.08;;;;;;;9.02;63.18;101806.23;1761987;81;28125;-66
2024/04/11 02:58:48;;;;;;;5.30;2.15;;;;;;;8.94;63.03;101813.76;1793286;80;25571;-66
2024/04/11 03:01:15;;;;;;;5.75;1.70;;;;;;;8.86;62.94;101813.44;1761940;81;25430;-66
2024/04/11 03:03:43;;;;;;;5.90;1.95;;;;;;;8.79;63.12;101813.66;1793286;80;25454;-66
2024/04/11 03:06:13;;;;;;;6.67;1.92;;;;;;;8.69;63.49;101818.44;1761953;81;25458;-66
2024/04/11 03:08:41;;;;;;;4.80;2.27;;;;;;;8.60;63.60;101817.30;1773390;80;27626;-66
2024/04/11 03:11:10;;;;;;;5.83;2.40;;;;;;;8.50;63.86;101826.13;1761656;81;25816;-66
2024/04/11 03:13:40;;;;;;;4.78;1.92;;;;;;;8.41;63.37;101822.22;1773328;80;25425;-67
2024/04/11 03:16:11;;;;;;;;;;;;;;;8.34;63.89;101831.06;1764070;81;26098;-66
2024/04/11 03:18:35;;;;;;;7.43;2.00;;;;;;;8.27;63.91;101828.58;1773279;80;25633;-67
2024/04/11 03:21:01;;;;;;;4.87;1.80;;;;;;;8.19;64.31;101826.37;1762053;81;27047;-66
2024/04/11 03:23:29;;;;;;;4.10;2.08;;;;;;;8.12;64.53;101829.27;1793321;79;25610;-66
2024/04/11 03:25:56;;;;;;;3.65;1.80;;;;;;;8.06;64.42;101833.52;1762228;81;25490;-66
2024/04/11 03:28:23;;;;;;;5.10;1.80;;;;;;;7.98;64.27;101831.53;1793287;80;25485;-66
2024/04/11 03:31:04;;;;;;;6.67;2.30;;;;;;;7.92;64.24;101827.72;1761932;81;25596;-67
2024/04/11 03:33:35;;;;;;;9.08;2.20;;;;;;;7.83;64.40;101834.06;1793308;80;27503;-66
2024/04/11 03:36:09;;;;;;;3.67;2.08;;;;;;;7.74;64.56;101840.97;1761911;81;25622;-66
2024/04/11 03:38:37;;;;;;;4.45;2.20;;;;;;;7.66;64.73;101843.56;1793017;80;25643;-66
2024/04/11 03:41:11;;;;;;;6.28;2.02;;;;;;;7.60;64.88;101847.28;1762030;81;26240;-66
2024/04/11 03:43:41;;;;;;;6.60;2.17;;;;;;;7.57;64.97;101846.42;1793282;80;25451;-66
2024/04/11 03:46:23;;;;;;;8.40;2.62;;;;;;;7.51;64.95;101849.59;1761962;81;28204;-66
2024/04/11 03:48:57;;;;;;;6.22;2.30;;;;;;;7.46;65.31;101850.34;1793192;80;25488;-66
2024/04/11 03:51:39;;;;;;;4.67;2.08;;;;;;;7.41;65.93;101848.92;1761915;81;25666;-66
2024/04/11 03:54:03;;;;;;;6.47;2.30;;;;;;;7.39;65.99;101848.36;1792450;80;26323;-66
2024/04/11 03:56:32;;;;;;;5.87;2.12;;;;;;;7.38;66.20;101853.45;1761897;81;25434;-66
2024/04/11 03:58:59;;;;;;;4.50;2.22;;;;;;;7.38;66.39;101851.30;1793255;80;28161;-66
2024/04/11 04:01:28;;;;;;;5.30;2.40;;;;;;;7.37;66.83;101853.70;1761790;81;25861;-66
2024/04/11 04:04:04;;;;;;;4.12;1.92;;;;;;;7.37;66.83;101863.13;1793357;80;25449;-67
2024/04/11 04:06:33;;;;;;;4.22;2.35;;;;;;;7.36;66.84;101860.97;1761854;81;25551;-66
2024/04/11 04:09:07;;;;;;;;;;;;;;;7.35;67.09;101864.72;1795898;80;25552;-66
2024/04/11 04:11:28;;;;;;;8.90;2.45;;;;;;;7.34;67.32;101862.27;1790280;80;28091;-66
2024/04/11 04:13:55;;;;;;;3.62;2.10;;;;;;;7.31;67.45;101855.52;1776274;80;25423;-66
2024/04/11 04:16:22;;;;;;;6.55;2.98;;;;;;;7.30;67.08;101855.23;1776335;80;25475;-66
2024/04/11 04:18:51;;;;;;;5.40;2.70;;;;;;;7.31;67.31;101856.06;1776240;80;25819;-66
2024/04/11 04:21:26;;;;;;;4.78;2.52;;;;;;;7.31;67.22;101859.56;1756254;81;25465;-66
2024/04/11 04:23:55;;;;;;;6.85;2.92;;;;;;;7.31;67.36;101854.72;1745958;80;26126;-66
2024/04/11 04:26:26;;;;;;;5.78;2.58;;;;;;;7.31;67.42;101860.09;1776430;80;34623;-66
2024/04/11 04:28:53;;;;;;;5.20;2.60;;;;;;;7.31;67.63;101862.25;1776279;80;25438;-66
2024/04/11 04:31:25;;;;;;;9.43;2.47;;;;;;;7.31;67.61;101860.09;1756395;81;25632;-65
2024/04/11 04:33:57;;;;;;;6.28;2.52;;;;;;;7.32;67.85;101855.81;1776352;80;25421;-66
2024/04/11 04:36:28;;;;;;;7.22;2.42;;;;;;;7.33;67.86;101862.81;1755902;81;27536;-65
2024/04/11 04:38:58;;;;;;;5.12;2.60;;;;;;;7.35;67.91;101867.41;1776261;80;25721;-66
2024/04/11 04:41:28;;;;;;;7.25;3.12;;;;;;;7.37;68.25;101864.47;1776316;80;25469;-65
2024/04/11 04:44:00;;;;;;;10.53;2.50;;;;;;;7.38;68.21;101871.49;1776277;80;25572;-65
2024/04/11 04:46:30;;;;;;;8.73;2.47;;;;;;;7.39;68.73;101870.41;1756391;81;25399;-65
2024/04/11 04:49:09;;;;;;;4.97;2.52;;;;;;;7.40;68.66;101871.52;1776369;80;28030;-66
2024/04/11 04:51:36;;;;;;;7.03;3.45;;;;;;;7.43;69.12;101875.60;1775355;80;25466;-66
2024/04/11 04:54:04;;;;;;;9.58;3.10;;;;;;;7.47;69.06;101880.76;1776321;79;25404;-66
2024/04/11 04:56:33;;;;;;;9.63;3.25;;;;;;;7.47;69.31;101884.28;1776248;80;26016;-66
2024/04/11 04:58:59;;;;;;;6.50;2.83;;;;;;;7.57;69.66;101880.89;1776446;80;25464;-66
2024/04/11 05:01:26;;;;;;;12.33;2.77;;;;;;;7.57;69.66;101880.89;1776283;80;28473;-67
2024/04/11 05:03:55;;;;;;;9.23;2.62;;;;;;;7.63;69.75;101884.48;1776222;79;25724;-66
2024/04/11 05:06:22;;;;;;;8.00;3.00;;;;;;;7.68;70.01;101887.23;1776424;80;25628;-67
2024/04/11 05:08:53;;;;;;;8.33;3.08;;;;;;;7.74;70.02;101886.77;1776279;79;25615;-66
2024/04/11 05:11:21;;;;;;;9.23;3.40;;;;;;;7.78;70.25;101886.02;1775611;80;25566;-66
2024/04/11 05:13:49;;;;;;;11.15;2.95;;;;;;;7.83;70.18;101879.34;1776050;80;27520;-66
2024/04/11 05:16:19;;;;;;;8.63;3.60;;;;;;;7.93;70.25;101884.55;1776243;80;25551;-67
2024/04/11 05:18:53;;;;;;;8.43;3.05;;;;;;;7.98;70.40;101884.61;1776280;80;25441;-66
2024/04/11 05:21:26;;;;;;;10.13;3.35;;;;;;;8.09;70.74;101892.27;1776218;80;27639;-66
2024/04/11 05:23:55;;;;;;;11.63;3.20;;;;;;;8.18;70.67;101896.16;1776430;80;25623;-63
2024/04/11 05:26:23;;;;;;;13.43;3.42;;;;;;;8.27;70.76;101894.63;1776430;80;27333;-66
2024/04/11 05:28:54;;;;;;;5.40;3.30;;;;;;;8.38;70.81;101896.91;1776441;80;26038;-64
2024/04/11 05:31:27;;;;;;;;;;;;;;;8.48;70.93;101901.59;1758809;81;25249;-66
2024/04/11 05:34:06;;;;;;;9.10;3.50;;;;;;;8.59;70.80;101905.48;1776427;80;25588;-66
2024/04/11 05:36:28;;;;;;;8.40;4.10;;;;;;;8.70;70.45;101913.15;1775490;80;25458;-66
2024/04/11 05:38:56;;;;;;;13.50;3.92;;;;;;;8.86;70.08;101917.33;1776471;79;27741;-66
2024/04/11 05:41:26;;;;;;;12.00;3.70;;;;;;;8.97;69.47;101914.97;1776345;80;25539;-63
2024/04/11 05:43:54;;;;;;;13.58;3.45;;;;;;;9.14;69.60;101916.17;1775062;80;25469;-61
2024/04/11 05:46:25;;;;;;;10.45;3.37;;;;;;;9.31;69.43;101921.41;1776409;79;25651;-60
2024/04/11 05:48:52;;;;;;;11.25;3.30;;;;;;;9.46;68.31;101918.00;1775295;80;25792;-62
2024/04/11 05:51:21;;;;;;;7.03;2.72;;;;;;;9.66;68.19;101923.51;1756295;81;27482;-62
2024/04/11 05:53:49;;;;;;;9.53;3.00;;;;;;;9.84;66.87;101925.47;1770307;81;25403;-62
2024/04/11 05:56:17;;;;;;;9.57;2.63;;;;;;;10.00;66.58;101917.70;1756600;81;25564;-61
2024/04/11 05:58:45;;;;;;;8.95;2.67;;;;;;;10.20;65.70;101925.59;1770386;81;25613;-62
2024/04/11 06:01:16;;;;;;;9.55;2.40;;;;;;;10.40;65.33;101923.52;1756022;81;25560;-63
2024/04/11 06:03:51;;;;;;;7.90;3.02;;;;;;;10.59;64.80;101923.80;1775576;80;27932;-59
2024/04/11 06:06:19;;;;;;;9.38;3.00;;;;;;;10.81;64.24;101927.61;1773888;80;25595;-66
2024/04/11 06:08:46;;;;;;;9.63;3.40;;;;;;;11.00;63.56;101925.20;1775436;80;25496;-66
2024/04/11 06:11:17;;;;;;;15.93;7.20;;;;;;;11.19;63.46;101933.02;1756294;81;25456;-66
2024/04/11 06:13:47;;;;;;;11.93;5.22;;;;;;;11.39;63.32;101932.70;1772565;80;25560;-65
2024/04/11 06:16:17;;;;;;;8.48;3.25;;;;;;;11.62;62.59;101936.72;1762000;81;27518;-56
2024/04/11 06:18:45;;;;;;;8.48;2.80;;;;;;;11.87;62.05;101937.73;1793245;79;25923;-57
2024/04/11 06:21:18;;;;;;;14.80;3.12;;;;;;;12.10;60.82;101939.00;1761962;81;25624;-54
2024/04/11 06:23:41;;;;;;;10.15;2.65;;;;;;;12.29;59.42;101945.42;1792255;80;25603;-56
2024/04/11 06:26:14;;;;;;;8.73;2.33;;;;;;;12.48;58.85;101949.65;1761984;81;25593;-58
2024/04/11 06:28:41;;;;;;;8.48;2.62;;;;;;;12.61;57.20;101950.10;1793316;80;29041;-55
2024/04/11 06:31:12;;;;;;;10.50;2.42;;;;;;;12.75;56.52;101947.00;1761833;81;26021;-57
2024/04/11 06:33:40;;;;;;;8.53;2.22;;;;;;;12.95;56.78;101954.73;1793308;80;25433;-57
2024/04/11 06:36:11;;;;;;;8.23;2.70;;;;;;;13.19;55.90;101965.66;1761938;81;25563;-63
2024/04/11 06:38:38;;;;;;;7.70;2.30;;;;;;;13.40;53.46;101963.05;1793362;80;25425;-63
2024/04/11 06:41:08;;;;;;;4.55;2.20;;;;;;;13.56;53.71;101964.25;1761954;81;28092;-63
2024/04/11 06:43:37;;;;;;;5.37;1.92;;;;;;;13.78;53.42;101959.10;1793286;80;25520;-64
2024/04/11 06:46:06;;;;;;;7.72;2.42;;;;;;;14.02;52.93;101961.00;1762012;81;25384;-64
2024/04/11 06:48:33;;;;;;;5.17;1.98;;;;;;;14.26;51.74;101966.95;1793285;79;26113;-64
2024/04/11 06:51:01;;;;;;;9.58;2.08;;;;;;;14.47;51.08;101961.48;1761997;81;25455;-63
2024/04/11 06:53:30;;;;;;;4.58;1.95;;;;;;;14.69;49.93;101963.64;1773369;80;29629;-63
2024/04/11 06:55:56;;;;;;;5.85;2.15;;;;;;;14.89;49.56;101967.94;1761814;81;25631;-66
2024/04/11 06:58:24;;;;;;;94.07;64.47;;;;;;;15.09;49.39;101961.91;1763342;80;25694;-66
2024/04/11 07:00:59;;;;;;;37.65;27.52;;;;;;;15.31;48.84;101959.88;1761069;81;26083;-66
2024/04/11 07:03:27;;;;;;;7.00;3.30;;;;;;;15.58;48.74;101958.28;1793076;80;25620;-66
2024/04/11 07:06:09;;;;;;;8.33;3.20;;;;;;;15.89;47.96;101968.64;1762286;81;27476;-65
2024/04/11 07:08:31;;;;;;;15.78;9.78;;;;;;;16.17;47.37;101960.64;1791451;80;25674;-65
2024/04/11 07:11:20;;;;;;;33.00;23.35;;;;;;;16.41;46.47;101960.95;1762147;81;25425;-66
2024/04/11 07:13:48;;;;;;;5.80;2.05;;;;;;;16.60;45.65;101961.61;1782613;80;25622;-63
2024/04/11 07:16:21;;;;;;;6.22;2.15;;;;;;;16.82;45.71;101962.72;1775919;80;25718;-63
2024/04/11 07:18:54;;;;;;;9.65;1.60;;;;;;;17.09;45.40;101965.89;1776416;80;27554;-63
2024/04/11 07:21:19;;;;;;;5.75;2.20;;;;;;;17.30;43.70;101966.77;1775560;80;25400;-63
2024/04/11 07:23:53;;;;;;;3.85;1.75;;;;;;;17.48;43.67;101971.17;1776324;80;25387;-64
2024/04/11 07:26:21;;;;;;;5.40;2.10;;;;;;;17.74;43.88;101969.09;1776243;80;26100;-64
2024/04/11 07:28:47;;;;;;;7.10;1.92;;;;;;;17.98;43.38;101971.47;1775988;80;25562;-63
2024/04/11 07:31:17;;;;;;;5.25;2.10;;;;;;;18.12;42.21;101963.12;1756176;81;27508;-64
2024/04/11 07:33:48;;;;;;;4.78;2.00;;;;;;;18.28;41.79;101962.88;1776444;80;34766;-64
2024/04/11 07:36:13;;;;;;;7.17;2.58;;;;;;;18.35;40.26;101964.34;1776255;80;25619;-64
2024/04/11 07:38:42;;;;;;;5.87;1.67;;;;;;;18.34;40.88;101970.39;1776293;80;25576;-64
2024/04/11 07:41:16;;;;;;;7.33;1.87;;;;;;;18.55;41.10;101967.81;1776401;80;25398;-64
2024/04/11 07:43:49;;;;;;;5.78;1.77;;;;;;;18.81;40.92;101959.59;1756326;81;28580;-64
2024/04/11 07:46:15;;;;;;;7.37;1.77;;;;;;;19.06;40.32;101968.69;1776287;80;26250;-63
2024/04/11 07:48:48;;;;;;;4.65;1.82;;;;;;;19.21;39.63;101972.28;1756206;81;25443;-64
2024/04/11 07:51:21;;;;;;;5.67;1.70;;;;;;;19.41;39.81;101960.59;1776315;80;25481;-64
2024/04/11 07:53:49;;;;;;;4.33;1.55;;;;;;;19.64;39.19;101963.64;1776185;80;25537;-71
2024/04/11 07:56:23;;;;;;;14.60;10.55;;;;;;;19.80;38.77;101959.21;1756420;81;28040;-67
2024/04/11 07:58:57;;;;;;;20.92;16.95;;;;;;;20.09;38.61;101965.28;1776444;80;25491;-68
2024/04/11 08:01:34;;;;;;;10.88;3.87;;;;;;;20.41;38.86;101963.50;1776585;80;25624;-66
2024/04/11 08:04:06;;;;;;;6.40;1.70;;;;;;;20.80;37.91;101973.20;1776029;80;25593;-59
2024/04/11 08:06:34;;;;;;;11.43;9.10;;;;;;;21.04;37.36;101963.43;1776373;80;25554;-59
2024/04/11 08:09:12;;;;;;;9.13;2.10;;;;;;;21.33;37.07;101968.53;1756345;81;27352;-58
2024/04/11 08:11:35;;;;;;;4.87;1.62;;;;;;;21.52;36.53;101968.83;1774938;80;25552;-59
2024/04/11 08:14:06;;;;;;;3.12;1.30;;;;;;;21.74;35.61;101966.20;1786233;80;25832;-59
2024/04/11 08:16:36;;;;;;;7.05;2.00;;;;;;;21.77;34.70;101973.74;1761977;81;25525;-60
2024/04/11 08:19:04;;;;;;;9.05;1.90;;;;;;;21.72;34.69;101973.97;1792942;80;25272;-60
2024/04/11 08:21:33;;;;;;;67.40;63.35;;;;;;;21.78;33.96;101976.73;1761985;81;27507;-60
2024/04/11 08:24:01;;;;;;;4.33;1.85;;;;;;;21.68;34.30;101970.90;1793215;80;25765;-57
2024/04/11 08:26:29;;;;;;;4.97;1.70;;;;;;;21.76;34.11;101973.53;1762020;81;25584;-65
2024/04/11 08:28:55;;;;;;;66.07;61.75;;;;;;;21.85;33.81;101969.28;1793208;80;25578;-66
2024/04/11 08:31:29;;;;;;;66.85;62.75;;;;;;;21.98;34.04;101972.80;1761930;81;25436;-65
2024/04/11 08:33:58;;;;;;;65.30;61.48;;;;;;;22.31;34.00;101964.40;1793300;80;28020;-63
2024/04/11 08:36:29;;;;;;;6.08;1.32;;;;;;;22.68;33.54;101957.38;1761954;81;25725;-64
2024/04/11 08:38:58;;;;;;;17.62;16.20;;;;;;;23.06;33.73;101959.39;1761124;81;25689;-64
2024/04/11 08:41:25;;;;;;;51.58;48.10;;;;;;;23.36;33.03;101958.39;1792366;80;25635;-67
2024/04/11 08:43:56;;;;;;;66.10;62.45;;;;;;;23.52;32.28;101961.14;1761898;81;25637;-64
2024/04/11 08:46:22;;;;;;;65.40;61.37;;;;;;;23.77;32.35;101955.39;1793203;80;27460;-65
2024/04/11 08:48:49;;;;;;;60.43;56.80;;;;;;;23.97;31.46;101954.33;1761992;81;25405;-65
2024/04/11 08:51:23;;;;;;;25.83;24.00;;;;;;;24.09;31.09;101949.23;1793457;79;25448;-66
2024/04/11 08:53:59;;;;;;;4.75;1.90;;;;;;;24.17;30.70;101959.28;1761833;81;25466;-66
2024/04/11 08:56:23;;;;;;;5.00;1.70;;;;;;;24.19;30.54;101956.16;1759655;81;25631;-66
2024/04/11 08:58:50;;;;;;;4.85;1.75;;;;;;;24.26;30.82;101954.12;1761824;81;27898;-66
2024/04/11 09:01:20;;;;;;;4.45;1.57;;;;;;;24.52;31.03;101956.23;1761829;81;25602;-68
2024/04/11 09:03:48;;;;;;;4.87;1.52;;;;;;;24.78;30.06;101954.22;1761926;81;25393;-65
2024/04/11 09:06:23;;;;;;;;;;;;;;;24.88;30.06;101949.47;1764457;81;26207;-67
2024/04/11 09:08:50;;;;;;;4.62;1.42;;;;;;;25.06;29.63;101944.83;1793014;80;25424;-66
2024/04/11 09:11:17;;;;;;;4.42;1.52;;;;;;;25.25;29.64;101939.80;1761641;81;27439;-66
2024/04/11 09:13:45;;;;;;;4.72;1.70;;;;;;;25.38;29.38;101944.61;1793055;80;25428;-66
2024/04/11 09:16:12;;;;;;;8.00;1.60;;;;;;;25.52;29.23;101944.25;1762058;81;25566;-66
2024/04/11 09:18:39;;;;;;;5.72;1.60;;;;;;;25.72;29.20;101952.45;1793622;80;26320;-66
2024/04/11 09:21:07;;;;;;;6.92;2.00;;;;;;;25.79;28.82;101944.83;1761962;81;25712;-67
2024/04/11 09:23:47;;;;;;;6.20;2.20;;;;;;;25.98;28.71;101948.87;1793483;80;27894;-66
2024/04/11 09:26:17;;;;;;;6.22;1.75;;;;;;;26.22;28.55;101939.88;1761771;81;25583;-65
2024/04/11 09:28:45;;;;;;;7.40;1.90;;;;;;;26.35;28.34;101937.08;1793357;80;25547;-66
2024/04/11 09:31:11;;;;;;;7.75;2.37;;;;;;;26.47;27.82;101937.41;1762033;81;25532;-66
2024/04/11 09:33:42;;;;;;;4.72;1.80;;;;;;;26.67;27.51;101938.66;1773350;80;25607;-67
2024/04/11 09:36:11;;;;;;;6.00;2.17;;;;;;;26.70;26.99;101942.86;1762064;81;27498;-66
2024/04/11 09:38:41;;;;;;;;;;;;;;;26.87;27.37;101948.39;1795849;80;25640;-67
2024/04/11 09:41:12;;;;;;;4.00;1.60;;;;;;;26.96;26.20;101941.91;1793335;80;25376;-66
2024/04/11 09:43:42;;;;;;;5.42;1.70;;;;;;;27.16;26.27;101930.00;1761781;81;25513;-66
2024/04/11 09:46:17;;;;;;;4.47;1.70;;;;;;;27.28;25.94;101926.73;1793330;80;25566;-65
2024/04/11 09:48:44;;;;;;;3.47;1.22;;;;;;;27.31;25.61;101923.19;1734005;81;27497;-65
2024/04/11 09:51:15;;;;;;;;;;;;;;;27.44;25.78;101923.69;1775822;80;25696;-65
2024/04/11 09:53:42;;;;;;;5.50;1.52;;;;;;;27.53;25.02;101925.53;1773321;80;25544;-67
2024/04/11 09:56:15;;;;;;;5.67;1.90;;;;;;;27.55;25.14;101918.41;1761845;81;25520;-72
2024/04/11 09:58:45;;;;;;;15.68;10.70;;;;;;;27.65;25.21;101912.73;1773458;80;25554;-73
2024/04/11 10:01:37;;;;;;;37.98;34.15;;;;;;;27.82;25.11;101910.42;1762051;81;27468;-72
2024/04/11 10:06:41;;;;;;;10.50;4.70;;;;;;;27.88;24.93;101913.05;1748847;82;25512;-71
2024/04/11 10:09:17;;;;;;;5.67;1.85;;;;;;;28.16;24.50;101906.03;1754481;81;26521;-72
2024/04/11 10:11:49;;;;;;;5.33;1.70;;;;;;;28.29;24.29;101908.06;1748706;82;25193;-72
2024/04/11 10:14:23;;;;;;;6.03;2.00;;;;;;;28.50;24.55;101907.92;1726555;82;28350;-73
2024/04/11 10:16:51;;;;;;;6.25;1.52;;;;;;;28.63;23.88;101903.61;1746283;82;25524;-74
2024/04/11 10:19:35;;;;;;;3.90;1.40;;;;;;;28.61;24.44;101901.81;1743297;82;25666;-73
2024/04/11 10:22:15;;;;;;;3.25;1.60;;;;;;;28.67;23.52;101903.03;1813001;79;25557;-73
2024/04/11 10:24:40;;;;;;;4.53;1.50;;;;;;;28.77;23.29;101906.22;1813318;79;25716;-72
2024/04/11 10:27:20;;;;;;;3.55;2.00;;;;;;;28.74;23.06;101901.43;1813938;79;28135;-73
2024/04/11 10:29:50;;;;;;;7.25;2.27;;;;;;;28.86;23.12;101909.39;1813658;79;25654;-72
2024/04/11 10:32:22;;;;;;;;;;;;;;;28.81;23.14;101909.21;1816592;79;25257;-72
2024/04/11 10:34:57;;;;;;;6.00;1.80;;;;;;;28.97;23.11;101916.38;1813617;79;25512;-73
2024/04/11 22:05:18;;;;;;;18.50;7.45;;;;;;;13.22;50.60;101665.66;1867545;76;26782;-61
2024/04/11 22:07:36;;;;;;;16.40;6.45;;;;;;;13.05;50.79;101661.29;1821757;78;25714;-61
2024/04/11 22:10:07;;;;;;;15.25;6.37;;;;;;;12.88;51.04;101653.08;1824453;78;27435;-61
2024/04/11 22:12:33;;;;;;;13.55;6.97;;;;;;;12.81;51.26;101664.05;1824458;78;25605;-61
2024/04/11 22:14:59;;;;;;;17.90;12.45;;;;;;;12.70;51.42;101664.70;1824456;78;25463;-62
2024/04/11 22:17:33;;;;;;;88.95;82.30;;;;;;;12.60;51.67;101660.22;1824431;78;25456;-62
2024/04/11 22:19:59;;;;;;;12.65;7.35;;;;;;;12.49;51.95;101658.15;1823598;78;25518;-62
2024/04/11 22:22:33;;;;;;;12.33;7.33;;;;;;;12.42;52.02;101656.34;1824490;78;28117;-61
2024/04/11 22:24:59;;;;;;;15.60;7.90;;;;;;;12.33;52.25;101654.80;1824360;78;25760;-61
2024/04/11 22:27:28;;;;;;;15.53;6.58;;;;;;;12.28;52.40;101654.86;1824500;78;25376;-61
2024/04/11 22:30:05;;;;;;;;;;;;;;;12.21;52.74;101659.82;1827120;78;25518;-61
2024/04/11 22:32:27;;;;;;;9.40;6.42;;;;;;;12.15;52.74;101659.03;1824718;78;25403;-62
2024/04/11 22:34:57;;;;;;;16.62;7.12;;;;;;;12.09;53.11;101660.75;1824280;78;28090;-62
2024/04/11 22:37:32;;;;;;;15.38;12.58;;;;;;;12.04;53.23;101654.83;1824410;78;25363;-60
2024/04/11 22:40:02;;;;;;;17.98;8.25;;;;;;;11.97;53.24;101648.93;1823212;78;25577;-61
2024/04/11 22:42:35;;;;;;;16.35;7.37;;;;;;;11.93;53.58;101652.73;1824396;78;25925;-61
2024/04/11 22:45:05;;;;;;;18.60;7.90;;;;;;;11.90;53.66;101654.66;1824461;78;25581;-61
2024/04/11 22:47:37;;;;;;;30.75;27.82;;;;;;;11.85;53.89;101653.34;1824470;78;27527;-61
2024/04/11 22:50:15;;;;;;;15.45;6.40;;;;;;;11.80;53.86;101653.91;1824331;78;25430;-61
2024/04/11 22:52:40;;;;;;;10.40;6.62;;;;;;;11.75;54.20;101665.62;1823337;78;25502;-61
2024/04/11 22:55:16;;;;;;;16.65;6.17;;;;;;;11.69;54.28;101655.34;1824448;78;25538;-61
2024/04/11 22:57:58;;;;;;;15.55;7.70;;;;;;;11.64;54.47;101648.61;1824478;78;25387;-62
2024/04/11 23:00:34;;;;;;;17.23;7.62;;;;;;;11.60;54.74;101655.70;1823100;78;28322;-62
2024/04/11 23:03:13;;;;;;;15.40;7.15;;;;;;;11.57;54.81;101646.77;1823279;78;25806;-61
2024/04/11 23:05:55;;;;;;;17.55;8.18;;;;;;;11.53;54.93;101650.59;1824429;78;25525;-60
2024/04/11 23:08:25;;;;;;;12.55;7.25;;;;;;;11.51;55.10;101649.25;1824329;78;25597;-60